sensor_id;sensor_type;location;lat;lon;timestamp;pressure;altitude;pressure_sealevel;temperature;humidity
79230;BME280;68663;49.122;17.544;2023-07-08T00:00:18;99958.94;;;25.26;38.50
79230;BME280;68663;49.122;17.544;2023-07-08T00:02:44;99955.72;;;25.24;38.43
79230;BME280;68663;49.122;17.544;2023-07-08T00:05:11;99961.00;;;25.22;38.79
79230;BME280;68663;49.122;17.544;2023-07-08T00:07:38;99959.41;;;25.21;38.62
79230;BME280;68663;49.122;17.544;2023-07-08T00:10:15;99962.66;;;25.20;38.63
79230;BME280;68663;49.122;17.544;2023-07-08T00:12:42;99958.22;;;25.19;38.79
79230;BME280;68663;49.122;17.544;2023-07-08T00:15:08;99956.63;;;25.18;38.47
79230;BME280;68663;49.122;17.544;2023-07-08T00:17:33;99960.66;;;25.17;38.57
79230;BME280;68663;49.122;17.544;2023-07-08T00:19:59;99957.84;;;25.17;38.46
79230;BME280;68663;49.122;17.544;2023-07-08T00:22:24;99960.66;;;25.17;38.50
79230;BME280;68663;49.122;17.544;2023-07-08T00:24:50;99962.28;;;25.14;38.68
79230;BME280;68663;49.122;17.544;2023-07-08T00:27:16;99958.28;;;25.12;38.87
79230;BME280;68663;49.122;17.544;2023-07-08T00:29:42;99968.78;;;25.11;38.85
79230;BME280;68663;49.122;17.544;2023-07-08T00:32:13;99955.50;;;25.08;38.60
79230;BME280;68663;49.122;17.544;2023-07-08T00:34:39;99963.59;;;25.06;38.63
79230;BME280;68663;49.122;17.544;2023-07-08T00:37:05;99954.34;;;25.02;38.65
79230;BME280;68663;49.122;17.544;2023-07-08T00:39:33;99956.81;;;25.00;38.56
79230;BME280;68663;49.122;17.544;2023-07-08T00:42:01;99957.59;;;25.00;38.74
79230;BME280;68663;49.122;17.544;2023-07-08T00:44:31;99951.16;;;24.96;38.49
79230;BME280;68663;49.122;17.544;2023-07-08T00:47:02;99943.91;;;24.95;38.78
79230;BME280;68663;49.122;17.544;2023-07-08T00:54:44;99950.41;;;24.92;38.65
79230;BME280;68663;49.122;17.544;2023-07-08T00:57:10;99943.13;;;24.91;38.73
79230;BME280;68663;49.122;17.544;2023-07-08T00:59:39;99945.59;;;24.89;38.85
79230;BME280;68663;49.122;17.544;2023-07-08T01:02:10;99939.13;;;24.89;38.81
79230;BME280;68663;49.122;17.544;2023-07-08T01:07:08;99937.53;;;24.88;38.97
79230;BME280;68663;49.122;17.544;2023-07-08T01:09:43;99933.50;;;24.85;38.81
79230;BME280;68663;49.122;17.544;2023-07-08T01:12:18;99937.56;;;24.84;38.99
79230;BME280;68663;49.122;17.544;2023-07-08T01:14:45;99940.00;;;24.82;38.59
79230;BME280;68663;49.122;17.544;2023-07-08T01:17:13;99935.97;;;24.83;38.91
79230;BME280;68663;49.122;17.544;2023-07-08T01:19:40;99945.66;;;24.82;38.68
79230;BME280;68663;49.122;17.544;2023-07-08T01:22:07;99929.91;;;24.81;38.78
79230;BME280;68663;49.122;17.544;2023-07-08T01:24:34;99935.63;;;24.77;38.70
79230;BME280;68663;49.122;17.544;2023-07-08T01:27:02;99935.66;;;24.74;38.72
79230;BME280;68663;49.122;17.544;2023-07-08T01:29:28;99935.28;;;24.72;38.97
79230;BME280;68663;49.122;17.544;2023-07-08T01:31:58;99934.50;;;24.68;39.04
79230;BME280;68663;49.122;17.544;2023-07-08T01:34:24;99941.81;;;24.65;39.11
79230;BME280;68663;49.122;17.544;2023-07-08T01:36:53;99951.94;;;24.63;39.14
79230;BME280;68663;49.122;17.544;2023-07-08T01:39:22;99947.09;;;24.63;39.01
79230;BME280;68663;49.122;17.544;2023-07-08T01:41:48;99944.69;;;24.62;38.97
79230;BME280;68663;49.122;17.544;2023-07-08T01:44:33;99953.16;;;24.62;38.89
79230;BME280;68663;49.122;17.544;2023-07-08T01:47:16;99943.88;;;24.61;38.58
79230;BME280;68663;49.122;17.544;2023-07-08T01:49:45;99943.06;;;24.61;38.40
79230;BME280;68663;49.122;17.544;2023-07-08T01:52:12;99945.91;;;24.61;38.50
79230;BME280;68663;49.122;17.544;2023-07-08T01:54:37;99942.31;;;24.57;38.30
79230;BME280;68663;49.122;17.544;2023-07-08T01:57:03;99939.47;;;24.57;38.47
79230;BME280;68663;49.122;17.544;2023-07-08T01:59:29;99931.41;;;24.55;38.34
79230;BME280;68663;49.122;17.544;2023-07-08T02:01:54;99931.41;;;24.55;38.23
79230;BME280;68663;49.122;17.544;2023-07-08T02:04:24;99930.63;;;24.55;38.03
79230;BME280;68663;49.122;17.544;2023-07-08T02:06:54;99937.09;;;24.52;38.24
79230;BME280;68663;49.122;17.544;2023-07-08T02:09:20;99935.94;;;24.49;38.13
79230;BME280;68663;49.122;17.544;2023-07-08T02:11:46;99942.00;;;24.48;38.16
79230;BME280;68663;49.122;17.544;2023-07-08T02:14:11;99940.44;;;24.43;38.26
79230;BME280;68663;49.122;17.544;2023-07-08T02:16:37;99935.19;;;24.41;38.46
79230;BME280;68663;49.122;17.544;2023-07-08T02:19:02;99935.63;;;24.40;38.31
79230;BME280;68663;49.122;17.544;2023-07-08T02:21:28;99926.75;;;24.38;38.46
79230;BME280;68663;49.122;17.544;2023-07-08T02:23:56;99934.03;;;24.35;38.51
79230;BME280;68663;49.122;17.544;2023-07-08T02:26:22;99936.47;;;24.33;38.44
79230;BME280;68663;49.122;17.544;2023-07-08T02:28:47;99926.41;;;24.32;38.52
79230;BME280;68663;49.122;17.544;2023-07-08T02:31:12;99936.09;;;24.31;38.52
79230;BME280;68663;49.122;17.544;2023-07-08T02:33:38;99933.69;;;24.30;38.47
79230;BME280;68663;49.122;17.544;2023-07-08T02:36:03;99934.06;;;24.32;38.37
79230;BME280;68663;49.122;17.544;2023-07-08T02:38:29;99931.66;;;24.30;38.28
79230;BME280;68663;49.122;17.544;2023-07-08T02:40:55;99934.09;;;24.28;38.20
79230;BME280;68663;49.122;17.544;2023-07-08T02:43:21;99940.56;;;24.29;38.27
79230;BME280;68663;49.122;17.544;2023-07-08T02:45:49;99926.81;;;24.27;38.36
79230;BME280;68663;49.122;17.544;2023-07-08T02:48:17;99928.84;;;24.27;38.37
79230;BME280;68663;49.122;17.544;2023-07-08T02:50:42;99929.22;;;24.25;38.30
79230;BME280;68663;49.122;17.544;2023-07-08T02:53:08;99926.06;;;24.20;38.50
79230;BME280;68663;49.122;17.544;2023-07-08T02:55:33;99919.63;;;24.15;38.35
79230;BME280;68663;49.122;17.544;2023-07-08T02:57:59;99924.47;;;24.15;38.55
79230;BME280;68663;49.122;17.544;2023-07-08T03:00:24;99930.16;;;24.11;38.48
79230;BME280;68663;49.122;17.544;2023-07-08T03:02:50;99922.09;;;24.10;38.46
79230;BME280;68663;49.122;17.544;2023-07-08T03:05:15;99927.75;;;24.10;38.47
79230;BME280;68663;49.122;17.544;2023-07-08T03:07:41;99922.09;;;24.10;38.74
79230;BME280;68663;49.122;17.544;2023-07-08T03:10:06;99922.53;;;24.08;38.88
79230;BME280;68663;49.122;17.544;2023-07-08T03:12:32;99924.53;;;24.08;38.67
79230;BME280;68663;49.122;17.544;2023-07-08T03:14:57;99921.72;;;24.08;38.76
79230;BME280;68663;49.122;17.544;2023-07-08T03:17:22;99931.81;;;24.09;38.58
79230;BME280;68663;49.122;17.544;2023-07-08T03:19:48;99936.66;;;24.08;38.91
79230;BME280;68663;49.122;17.544;2023-07-08T03:22:14;99929.00;;;24.05;38.72
79230;BME280;68663;49.122;17.544;2023-07-08T03:24:39;99928.19;;;24.05;38.79
79230;BME280;68663;49.122;17.544;2023-07-08T03:27:12;99920.53;;;24.05;38.88
79230;BME280;68663;49.122;17.544;2023-07-08T03:29:37;99923.78;;;24.04;38.84
79230;BME280;68663;49.122;17.544;2023-07-08T03:32:03;99923.78;;;24.04;38.65
79230;BME280;68663;49.122;17.544;2023-07-08T03:34:29;99928.63;;;24.03;38.94
79230;BME280;68663;49.122;17.544;2023-07-08T03:36:54;99931.84;;;24.02;38.87
79230;BME280;68663;49.122;17.544;2023-07-08T03:39:22;99927.84;;;23.99;39.29
79230;BME280;68663;49.122;17.544;2023-07-08T03:41:48;99926.66;;;23.97;39.16
79230;BME280;68663;49.122;17.544;2023-07-08T03:44:14;99931.13;;;23.94;39.26
79230;BME280;68663;49.122;17.544;2023-07-08T03:46:48;99933.13;;;23.94;39.53
79230;BME280;68663;49.122;17.544;2023-07-08T03:49:18;99928.72;;;23.93;39.63
79230;BME280;68663;49.122;17.544;2023-07-08T03:51:47;99929.91;;;23.92;39.80
79230;BME280;68663;49.122;17.544;2023-07-08T03:54:14;99937.59;;;23.91;39.48
79230;BME280;68663;49.122;17.544;2023-07-08T03:56:39;99936.78;;;23.91;39.47
79230;BME280;68663;49.122;17.544;2023-07-08T03:59:05;99930.75;;;23.89;39.39
79230;BME280;68663;49.122;17.544;2023-07-08T04:01:31;99936.81;;;23.87;39.16
79230;BME280;68663;49.122;17.544;2023-07-08T04:03:57;99926.31;;;23.88;39.32
79230;BME280;68663;49.122;17.544;2023-07-08T04:06:23;99941.66;;;23.87;39.11
79230;BME280;68663;49.122;17.544;2023-07-08T04:08:50;99931.59;;;23.86;39.37
79230;BME280;68663;49.122;17.544;2023-07-08T04:11:17;99930.78;;;23.85;39.42
79230;BME280;68663;49.122;17.544;2023-07-08T04:13:43;99932.81;;;23.85;39.33
79230;BME280;68663;49.122;17.544;2023-07-08T04:16:17;99923.53;;;23.84;39.48
79230;BME280;68663;49.122;17.544;2023-07-08T04:18:43;99927.97;;;23.81;39.62
79230;BME280;68663;49.122;17.544;2023-07-08T04:21:09;99936.47;;;23.81;39.66
79230;BME280;68663;49.122;17.544;2023-07-08T04:23:34;99935.25;;;23.79;39.98
79230;BME280;68663;49.122;17.544;2023-07-08T04:26:00;99930.03;;;23.77;40.13
79230;BME280;68663;49.122;17.544;2023-07-08T04:28:26;99935.28;;;23.75;40.12
79230;BME280;68663;49.122;17.544;2023-07-08T04:30:51;99935.28;;;23.75;40.38
79230;BME280;68663;49.122;17.544;2023-07-08T04:33:17;99939.75;;;23.73;40.32
79230;BME280;68663;49.122;17.544;2023-07-08T04:35:43;99933.69;;;23.74;40.56
79230;BME280;68663;49.122;17.544;2023-07-08T04:38:21;99938.53;;;23.74;40.68
79230;BME280;68663;49.122;17.544;2023-07-08T04:40:50;99944.97;;;23.74;40.94
79230;BME280;68663;49.122;17.544;2023-07-08T04:43:17;99944.97;;;23.74;41.01
79230;BME280;68663;49.122;17.544;2023-07-08T04:45:45;99932.88;;;23.74;41.19
79230;BME280;68663;49.122;17.544;2023-07-08T04:48:15;99940.56;;;23.73;41.22
79230;BME280;68663;49.122;17.544;2023-07-08T04:50:43;99944.97;;;23.74;41.24
79230;BME280;68663;49.122;17.544;2023-07-08T04:53:09;99939.34;;;23.74;41.40
79230;BME280;68663;49.122;17.544;2023-07-08T04:55:42;99940.13;;;23.75;41.28
79230;BME280;68663;49.122;17.544;2023-07-08T04:58:09;99938.13;;;23.75;41.34
79230;BME280;68663;49.122;17.544;2023-07-08T05:00:34;99940.13;;;23.75;41.29
79230;BME280;68663;49.122;17.544;2023-07-08T05:03:00;99944.53;;;23.79;41.35
79230;BME280;68663;49.122;17.544;2023-07-08T05:05:26;99941.72;;;23.79;41.72
79230;BME280;68663;49.122;17.544;2023-07-08T05:07:51;99942.53;;;23.80;42.11
79230;BME280;68663;49.122;17.544;2023-07-08T05:10:17;99939.69;;;23.80;42.05
79230;BME280;68663;49.122;17.544;2023-07-08T05:12:43;99945.72;;;23.82;42.34
79230;BME280;68663;49.122;17.544;2023-07-08T05:15:10;99932.00;;;23.84;42.26
79230;BME280;68663;49.122;17.544;2023-07-08T05:17:37;99934.41;;;23.86;42.34
79230;BME280;68663;49.122;17.544;2023-07-08T05:20:03;99944.88;;;23.89;42.38
79230;BME280;68663;49.122;17.544;2023-07-08T05:22:29;99947.28;;;23.90;42.37
79230;BME280;68663;49.122;17.544;2023-07-08T05:24:54;99954.13;;;23.93;42.78
79230;BME280;68663;49.122;17.544;2023-07-08T05:27:23;99957.75;;;23.93;42.62
79230;BME280;68663;49.122;17.544;2023-07-08T05:29:49;99949.25;;;23.97;42.70
79230;BME280;68663;49.122;17.544;2023-07-08T05:32:15;99962.53;;;24.00;42.57
79230;BME280;68663;49.122;17.544;2023-07-08T05:34:40;99965.75;;;24.02;42.85
79230;BME280;68663;49.122;17.544;2023-07-08T05:37:06;99956.88;;;24.03;42.91
79230;BME280;68663;49.122;17.544;2023-07-08T05:39:31;99968.56;;;24.05;42.72
79230;BME280;68663;49.122;17.544;2023-07-08T05:41:57;99964.09;;;24.08;42.76
79230;BME280;68663;49.122;17.544;2023-07-08T05:44:22;99958.41;;;24.11;42.74
79230;BME280;68663;49.122;17.544;2023-07-08T05:46:49;99958.00;;;24.13;43.05
79230;BME280;68663;49.122;17.544;2023-07-08T05:49:14;99959.19;;;24.15;42.85
79230;BME280;68663;49.122;17.544;2023-07-08T05:51:40;99953.13;;;24.17;42.95
79230;BME280;68663;49.122;17.544;2023-07-08T05:54:05;99959.97;;;24.20;42.94
79230;BME280;68663;49.122;17.544;2023-07-08T05:56:31;99957.53;;;24.22;43.06
79230;BME280;68663;49.122;17.544;2023-07-08T05:58:56;99954.28;;;24.23;42.79
79230;BME280;68663;49.122;17.544;2023-07-08T06:01:22;99953.44;;;24.26;42.84
79230;BME280;68663;49.122;17.544;2023-07-08T06:03:48;99955.50;;;24.29;42.90
79230;BME280;68663;49.122;17.544;2023-07-08T06:06:13;99954.28;;;24.30;42.73
79230;BME280;68663;49.122;17.544;2023-07-08T06:08:39;99949.00;;;24.32;43.08
79230;BME280;68663;49.122;17.544;2023-07-08T06:11:04;99944.53;;;24.35;42.84
79230;BME280;68663;49.122;17.544;2023-07-08T06:13:30;99954.22;;;24.37;42.77
79230;BME280;68663;49.122;17.544;2023-07-08T06:15:55;99955.81;;;24.38;42.76
79230;BME280;68663;49.122;17.544;2023-07-08T06:18:21;99960.25;;;24.39;43.07
79230;BME280;68663;49.122;17.544;2023-07-08T06:20:57;99954.97;;;24.41;43.16
79230;BME280;68663;49.122;17.544;2023-07-08T06:23:23;99956.59;;;24.42;43.13
79230;BME280;68663;49.122;17.544;2023-07-08T06:25:49;99960.59;;;24.45;43.13
79230;BME280;68663;49.122;17.544;2023-07-08T06:28:14;99948.06;;;24.46;42.89
79230;BME280;68663;49.122;17.544;2023-07-08T06:30:40;99946.03;;;24.47;43.43
79230;BME280;68663;49.122;17.544;2023-07-08T06:33:05;99950.47;;;24.48;42.96
79230;BME280;68663;49.122;17.544;2023-07-08T06:35:31;99951.25;;;24.52;43.50
79230;BME280;68663;49.122;17.544;2023-07-08T06:37:56;99951.63;;;24.54;43.81
79230;BME280;68663;49.122;17.544;2023-07-08T06:40:22;99953.22;;;24.55;43.58
79230;BME280;68663;49.122;17.544;2023-07-08T06:42:47;99958.47;;;24.56;43.53
79230;BME280;68663;49.122;17.544;2023-07-08T06:45:13;99954.81;;;24.59;43.44
79230;BME280;68663;49.122;17.544;2023-07-08T06:47:38;99953.16;;;24.62;43.37
79230;BME280;68663;49.122;17.544;2023-07-08T06:50:04;99947.88;;;24.64;43.27
79230;BME280;68663;49.122;17.544;2023-07-08T06:52:30;99943.03;;;24.64;43.26
79230;BME280;68663;49.122;17.544;2023-07-08T06:55:00;99944.59;;;24.69;43.54
79230;BME280;68663;49.122;17.544;2023-07-08T06:57:27;99941.78;;;24.69;43.72
79230;BME280;68663;49.122;17.544;2023-07-08T06:59:53;99941.34;;;24.70;44.09
79230;BME280;68663;49.122;17.544;2023-07-08T07:02:19;99935.28;;;24.72;44.63
79230;BME280;68663;49.122;17.544;2023-07-08T07:04:45;99939.28;;;24.74;44.75
79230;BME280;68663;49.122;17.544;2023-07-08T07:07:11;99937.66;;;24.77;44.65
79230;BME280;68663;49.122;17.544;2023-07-08T07:09:36;99935.19;;;24.79;44.64
79230;BME280;68663;49.122;17.544;2023-07-08T07:12:02;99927.50;;;24.80;44.63
79230;BME280;68663;49.122;17.544;2023-07-08T07:14:28;99935.56;;;24.81;44.32
79230;BME280;68663;49.122;17.544;2023-07-08T07:16:54;99931.53;;;24.82;44.54
79230;BME280;68663;49.122;17.544;2023-07-08T07:19:19;99926.66;;;24.83;44.47
79230;BME280;68663;49.122;17.544;2023-07-08T07:21:46;99930.31;;;24.83;44.38
79230;BME280;68663;49.122;17.544;2023-07-08T07:24:12;99933.50;;;24.85;44.22
79230;BME280;68663;49.122;17.544;2023-07-08T07:26:38;99927.44;;;24.87;43.71
79230;BME280;68663;49.122;17.544;2023-07-08T07:29:03;99914.91;;;24.88;43.51
79230;BME280;68663;49.122;17.544;2023-07-08T07:31:29;99931.44;;;24.89;43.66
79230;BME280;68663;49.122;17.544;2023-07-08T07:33:55;99922.09;;;24.92;43.56
79230;BME280;68663;49.122;17.544;2023-07-08T07:36:20;99918.47;;;24.92;43.89
79230;BME280;68663;49.122;17.544;2023-07-08T07:38:45;99917.25;;;24.93;44.17
79230;BME280;68663;49.122;17.544;2023-07-08T07:41:11;99928.16;;;24.94;44.10
79230;BME280;68663;49.122;17.544;2023-07-08T07:43:37;99928.53;;;24.96;44.50
79230;BME280;68663;49.122;17.544;2023-07-08T07:46:04;99918.84;;;24.97;44.56
79230;BME280;68663;49.122;17.544;2023-07-08T07:48:31;99924.88;;;24.99;44.76
79230;BME280;68663;49.122;17.544;2023-07-08T07:50:56;99908.66;;;25.03;44.80
79230;BME280;68663;49.122;17.544;2023-07-08T07:53:22;99911.03;;;25.08;44.62
79230;BME280;68663;49.122;17.544;2023-07-08T07:55:47;99910.56;;;25.14;44.99
79230;BME280;68663;49.122;17.544;2023-07-08T07:58:13;99913.00;;;25.15;45.15
79230;BME280;68663;49.122;17.544;2023-07-08T08:00:39;99904.06;;;25.17;46.49
79230;BME280;68663;49.122;17.544;2023-07-08T08:03:04;99906.06;;;25.20;47.12
79230;BME280;68663;49.122;17.544;2023-07-08T08:05:31;99911.72;;;25.20;45.81
79230;BME280;68663;49.122;17.544;2023-07-08T08:07:56;99910.50;;;25.21;45.83
79230;BME280;68663;49.122;17.544;2023-07-08T08:10:21;99913.69;;;25.23;47.18
79230;BME280;68663;49.122;17.544;2023-07-08T08:12:47;99908.41;;;25.25;46.80
79230;BME280;68663;49.122;17.544;2023-07-08T08:15:16;99907.19;;;25.26;47.09
79230;BME280;68663;49.122;17.544;2023-07-08T08:17:41;99914.44;;;25.27;46.82
79230;BME280;68663;49.122;17.544;2023-07-08T08:20:12;99912.00;;;25.29;47.14
79230;BME280;68663;49.122;17.544;2023-07-08T08:22:38;99906.34;;;25.29;46.55
79230;BME280;68663;49.122;17.544;2023-07-08T08:25:03;99905.09;;;25.30;46.60
79230;BME280;68663;49.122;17.544;2023-07-08T08:27:29;99903.88;;;25.31;46.27
79230;BME280;68663;49.122;17.544;2023-07-08T08:29:54;99904.69;;;25.31;46.33
79230;BME280;68663;49.122;17.544;2023-07-08T08:32:19;99904.25;;;25.33;46.08
79230;BME280;68663;49.122;17.544;2023-07-08T08:34:45;99909.91;;;25.33;46.05
79230;BME280;68663;49.122;17.544;2023-07-08T08:37:10;99903.03;;;25.34;45.51
79230;BME280;68663;49.122;17.544;2023-07-08T08:39:36;99908.69;;;25.34;45.23
79230;BME280;68663;49.122;17.544;2023-07-08T08:42:01;99910.28;;;25.35;45.10
79230;BME280;68663;49.122;17.544;2023-07-08T08:44:32;99910.66;;;25.37;45.11
79230;BME280;68663;49.122;17.544;2023-07-08T08:47:35;99911.91;;;25.36;45.18
79230;BME280;68663;49.122;17.544;2023-07-08T08:52:42;99918.31;;;25.40;45.90
79230;BME280;68663;49.122;17.544;2023-07-08T08:55:12;99911.84;;;25.39;45.12
79230;BME280;68663;49.122;17.544;2023-07-08T09:00:31;99912.22;;;25.42;45.61
79230;BME280;68663;49.122;17.544;2023-07-08T09:03:12;99906.13;;;25.43;45.49
79230;BME280;68663;49.122;17.544;2023-07-08T09:05:41;99899.66;;;25.43;45.20
79230;BME280;68663;49.122;17.544;2023-07-08T09:08:31;99906.13;;;25.43;45.61
79230;BME280;68663;49.122;17.544;2023-07-08T09:11:07;99902.06;;;25.44;45.52
79230;BME280;68663;49.122;17.544;2023-07-08T09:13:37;99897.22;;;25.45;45.55
79230;BME280;68663;49.122;17.544;2023-07-08T09:20:12;99898.00;;;25.45;45.17
79230;BME280;68663;49.122;17.544;2023-07-08T09:22:34;99894.38;;;25.45;45.07
79230;BME280;68663;49.122;17.544;2023-07-08T09:27:27;99900.03;;;25.45;45.17
79230;BME280;68663;49.122;17.544;2023-07-08T09:29:52;99900.41;;;25.47;45.30
79230;BME280;68663;49.122;17.544;2023-07-08T09:32:20;99889.91;;;25.47;45.42
79230;BME280;68663;49.122;17.544;2023-07-08T09:37:27;99880.97;;;25.49;45.06
79230;BME280;68663;49.122;17.544;2023-07-08T09:39:54;99878.94;;;25.49;45.04
79230;BME280;68663;49.122;17.544;2023-07-08T09:42:22;99881.78;;;25.49;44.91
79230;BME280;68663;49.122;17.544;2023-07-08T09:44:55;99874.09;;;25.50;45.08
79230;BME280;68663;49.122;17.544;2023-07-08T09:47:26;99876.91;;;25.50;44.96
79230;BME280;68663;49.122;17.544;2023-07-08T09:49:57;99875.25;;;25.52;44.91
79230;BME280;68663;49.122;17.544;2023-07-08T09:52:22;99868.38;;;25.53;45.05
79230;BME280;68663;49.122;17.544;2023-07-08T09:54:49;99864.72;;;25.53;45.00
79230;BME280;68663;49.122;17.544;2023-07-08T09:57:31;99862.69;;;25.53;45.06
79230;BME280;68663;49.122;17.544;2023-07-08T10:00:00;99871.19;;;25.53;45.38
79230;BME280;68663;49.122;17.544;2023-07-08T10:02:29;99877.66;;;25.54;46.19
79230;BME280;68663;49.122;17.544;2023-07-08T10:04:58;99866.34;;;25.54;46.92
79230;BME280;68663;49.122;17.544;2023-07-08T10:07:28;99866.28;;;25.57;47.83
79230;BME280;68663;49.122;17.544;2023-07-08T10:09:54;99867.41;;;25.63;48.90
79230;BME280;68663;49.122;17.544;2023-07-08T10:12:23;99853.53;;;25.73;49.39
79230;BME280;68663;49.122;17.544;2023-07-08T10:14:52;99850.69;;;25.73;47.69
79230;BME280;68663;49.122;17.544;2023-07-08T10:17:20;99854.31;;;25.73;46.48
79230;BME280;68663;49.122;17.544;2023-07-08T10:19:46;99850.69;;;25.73;45.25
79230;BME280;68663;49.122;17.544;2023-07-08T10:25:05;99845.41;;;25.75;45.55
79230;BME280;68663;49.122;17.544;2023-07-08T10:30:25;99855.88;;;25.78;47.68
79230;BME280;68663;49.122;17.544;2023-07-08T10:35:50;99848.03;;;25.85;46.54
79230;BME280;68663;49.122;17.544;2023-07-08T10:40:59;99838.63;;;25.92;47.35
79230;BME280;68663;49.122;17.544;2023-07-08T10:46:03;99847.00;;;25.99;45.74
79230;BME280;68663;49.122;17.544;2023-07-08T10:49:06;99842.09;;;26.03;47.53
79230;BME280;68663;49.122;17.544;2023-07-08T10:54:14;99836.31;;;26.10;48.73
79230;BME280;68663;49.122;17.544;2023-07-08T10:59:44;99843.44;;;26.18;58.66
79230;BME280;68663;49.122;17.544;2023-07-08T11:07:47;99830.88;;;26.19;51.35
79230;BME280;68663;49.122;17.544;2023-07-08T11:10:51;99834.50;;;26.20;49.91
79230;BME280;68663;49.122;17.544;2023-07-08T11:13:13;99826.81;;;26.20;49.17
79230;BME280;68663;49.122;17.544;2023-07-08T11:15:53;99832.47;;;26.20;49.09
79230;BME280;68663;49.122;17.544;2023-07-08T11:18:30;99828.03;;;26.19;49.19
79230;BME280;68663;49.122;17.544;2023-07-08T11:21:08;99824.41;;;26.19;49.38
79230;BME280;68663;49.122;17.544;2023-07-08T11:23:46;99825.19;;;26.19;48.40
79230;BME280;68663;49.122;17.544;2023-07-08T11:29:03;99821.56;;;26.19;47.97
79230;BME280;68663;49.122;17.544;2023-07-08T11:31:31;99826.44;;;26.18;47.95
79230;BME280;68663;49.122;17.544;2023-07-08T11:33:59;99830.50;;;26.17;47.92
79230;BME280;68663;49.122;17.544;2023-07-08T11:36:25;99819.16;;;26.17;46.81
79230;BME280;68663;49.122;17.544;2023-07-08T11:38:56;99817.13;;;26.18;46.50
79230;BME280;68663;49.122;17.544;2023-07-08T11:41:25;99824.03;;;26.17;47.04
79230;BME280;68663;49.122;17.544;2023-07-08T11:43:59;99813.13;;;26.15;47.45
79230;BME280;68663;49.122;17.544;2023-07-08T11:46:30;99811.53;;;26.14;46.92
79230;BME280;68663;49.122;17.544;2023-07-08T11:49:12;99816.41;;;26.14;46.40
79230;BME280;68663;49.122;17.544;2023-07-08T11:51:41;99805.50;;;26.12;45.70
79230;BME280;68663;49.122;17.544;2023-07-08T11:54:29;99815.59;;;26.13;46.00
79230;BME280;68663;49.122;17.544;2023-07-08T11:56:59;99812.41;;;26.11;45.03
79230;BME280;68663;49.122;17.544;2023-07-08T11:59:29;99809.56;;;26.11;45.44
79230;BME280;68663;49.122;17.544;2023-07-08T12:02:17;99810.38;;;26.12;45.89
79230;BME280;68663;49.122;17.544;2023-07-08T12:04:59;99795.03;;;26.09;45.70
79230;BME280;68663;49.122;17.544;2023-07-08T12:07:44;99800.69;;;26.09;45.54
79230;BME280;68663;49.122;17.544;2023-07-08T12:10:18;99797.84;;;26.09;45.58
79230;BME280;68663;49.122;17.544;2023-07-08T12:12:48;99798.28;;;26.08;45.43
79230;BME280;68663;49.122;17.544;2023-07-08T12:15:25;99793.44;;;26.08;45.38
79230;BME280;68663;49.122;17.544;2023-07-08T12:17:53;99786.16;;;26.07;45.24
79230;BME280;68663;49.122;17.544;2023-07-08T12:20:40;99787.38;;;26.06;45.42
79230;BME280;68663;49.122;17.544;2023-07-08T12:23:15;99782.09;;;26.08;45.22
79230;BME280;68663;49.122;17.544;2023-07-08T12:25:40;99784.56;;;26.06;44.87
79230;BME280;68663;49.122;17.544;2023-07-08T12:28:06;99774.03;;;26.07;44.30
79230;BME280;68663;49.122;17.544;2023-07-08T12:30:32;99772.78;;;26.08;45.03
79230;BME280;68663;49.122;17.544;2023-07-08T12:32:59;99772.78;;;26.08;44.66
79230;BME280;68663;49.122;17.544;2023-07-08T12:37:55;99775.25;;;26.06;44.96
79230;BME280;68663;49.122;17.544;2023-07-08T12:40:22;99773.66;;;26.05;44.82
79230;BME280;68663;49.122;17.544;2023-07-08T12:42:49;99770.81;;;26.05;45.06
79230;BME280;68663;49.122;17.544;2023-07-08T12:45:16;99774.09;;;26.03;44.86
79230;BME280;68663;49.122;17.544;2023-07-08T12:47:43;99778.53;;;26.04;44.27
79230;BME280;68663;49.122;17.544;2023-07-08T12:50:10;99767.22;;;26.00;44.17
79230;BME280;68663;49.122;17.544;2023-07-08T12:52:35;99776.56;;;26.01;44.24
79230;BME280;68663;49.122;17.544;2023-07-08T12:55:02;99767.66;;;25.99;43.25
79230;BME280;68663;49.122;17.544;2023-07-08T12:57:29;99760.75;;;26.00;43.59
79230;BME280;68663;49.122;17.544;2023-07-08T12:59:57;99765.63;;;25.99;43.59
79230;BME280;68663;49.122;17.544;2023-07-08T13:02:22;99779.78;;;25.99;43.56
79230;BME280;68663;49.122;17.544;2023-07-08T13:04:59;99776.16;;;25.99;43.22
79230;BME280;68663;49.122;17.544;2023-07-08T13:07:34;99770.06;;;26.00;41.79
79230;BME280;68663;49.122;17.544;2023-07-08T13:10:01;99764.41;;;26.00;42.96
79230;BME280;68663;49.122;17.544;2023-07-08T13:12:27;99762.00;;;25.99;42.73
79230;BME280;68663;49.122;17.544;2023-07-08T13:14:55;99761.56;;;26.00;42.52
79230;BME280;68663;49.122;17.544;2023-07-08T13:17:25;99752.25;;;26.00;43.14
79230;BME280;68663;49.122;17.544;2023-07-08T13:19:51;99750.66;;;25.99;43.28
79230;BME280;68663;49.122;17.544;2023-07-08T13:22:19;99754.28;;;25.99;43.20
79230;BME280;68663;49.122;17.544;2023-07-08T13:24:45;99752.25;;;26.00;43.16
79230;BME280;68663;49.122;17.544;2023-07-08T13:27:22;99756.31;;;25.99;43.12
79230;BME280;68663;49.122;17.544;2023-07-08T13:29:47;99746.22;;;25.98;43.31
79230;BME280;68663;49.122;17.544;2023-07-08T13:32:13;99748.25;;;25.97;43.56
79230;BME280;68663;49.122;17.544;2023-07-08T13:34:40;99746.28;;;25.94;43.42
79230;BME280;68663;49.122;17.544;2023-07-08T13:37:10;99736.56;;;25.95;43.35
79230;BME280;68663;49.122;17.544;2023-07-08T13:39:36;99741.78;;;25.97;43.44
79230;BME280;68663;49.122;17.544;2023-07-08T13:42:02;99729.72;;;25.93;43.00
79230;BME280;68663;49.122;17.544;2023-07-08T13:44:28;99739.47;;;25.92;43.91
79230;BME280;68663;49.122;17.544;2023-07-08T13:46:58;99739.03;;;25.93;43.58